createdAt,value
2023-05-13T00:04:52.650Z,92212.66
2023-05-13T00:09:54.454Z,92213.03
2023-05-13T00:14:56.214Z,92211.34
2023-05-13T00:19:58.294Z,92212.63
2023-05-13T00:25:00.237Z,92079.44
2023-05-13T00:30:02.306Z,92194.59
2023-05-13T00:35:04.405Z,92220.31
2023-05-13T00:40:16.107Z,92225.38
2023-05-13T00:45:18.403Z,92216.94
2023-05-13T00:50:20.792Z,92223.69
2023-05-13T00:55:22.761Z,92225.91
2023-05-13T01:00:24.750Z,92229.75
2023-05-13T01:05:47.174Z,92232.88
2023-05-13T01:10:59.058Z,92203.59
2023-05-13T01:16:06.953Z,92234.78
2023-05-13T01:21:10.434Z,92234.22
2023-05-13T01:26:12.377Z,92231.75
2023-05-13T01:31:15.517Z,92234.75
2023-05-13T01:36:18.244Z,92219.00
2023-05-13T01:41:20.099Z,92230.63
2023-05-13T01:46:22.499Z,92231.19
2023-05-13T01:51:24.603Z,92198.19
2023-05-13T01:56:26.672Z,92233.81
2023-05-13T02:01:28.922Z,92225.19
2023-05-13T02:06:32.178Z,92246.50
2023-05-13T02:11:35.655Z,92252.63
2023-05-13T02:16:37.595Z,92248.16
2023-05-13T02:21:43.415Z,92230.16
2023-05-13T02:26:45.165Z,92240.09
2023-05-13T02:31:46.998Z,92246.31
2023-05-13T02:36:48.874Z,92241.84
2023-05-13T02:41:50.783Z,92248.22
2023-05-13T02:46:53.118Z,92240.31
2023-05-13T02:51:54.983Z,92249.22
2023-05-13T02:57:03.336Z,92243.97
2023-05-13T03:02:05.493Z,92249.41
2023-05-13T03:07:07.490Z,92246.28
2023-05-13T03:12:09.454Z,92256.44
2023-05-13T03:17:11.511Z,92263.97
2023-05-13T03:22:13.298Z,92252.16
2023-05-13T03:27:15.298Z,92231.53
2023-05-13T03:32:17.115Z,92258.09
2023-05-13T03:37:19.404Z,92260.00
2023-05-13T03:42:23.250Z,92265.41
2023-05-13T03:47:26.033Z,92269.50
2023-05-13T03:52:28.447Z,92268.06
2023-05-13T03:57:30.291Z,92274.41
2023-05-13T04:02:32.250Z,92265.34
2023-05-13T04:07:34.675Z,92267.03
2023-05-13T04:12:37.448Z,92271.66
2023-05-13T04:17:39.317Z,92273.00
2023-05-13T04:22:41.637Z,92275.34
2023-05-13T04:27:43.685Z,92270.94
2023-05-13T04:32:51.390Z,92287.41
2023-05-13T04:37:53.617Z,92280.91
2023-05-13T04:42:56.148Z,92300.75
2023-05-13T04:48:02.805Z,92303.44
2023-05-13T04:53:04.794Z,92303.25
2023-05-13T04:58:07.000Z,92281.44
2023-05-13T05:03:10.915Z,92303.78
2023-05-13T05:08:13.029Z,92319.03
2023-05-13T05:13:15.452Z,92316.19
2023-05-13T05:18:19.975Z,92325.16
2023-05-13T05:23:24.891Z,92331.25
2023-05-13T05:28:26.968Z,92327.50
2023-05-13T05:33:29.156Z,92335.03
2023-05-13T05:38:31.203Z,92345.13
2023-05-13T05:43:34.340Z,92342.66
2023-05-13T05:48:36.205Z,92345.44
2023-05-13T05:53:41.077Z,92348.81
2023-05-13T05:58:44.892Z,92346.66
2023-05-13T06:03:47.072Z,92348.03
2023-05-13T06:08:50.866Z,92350.59
2023-05-13T06:13:54.132Z,92347.13
2023-05-13T06:18:56.651Z,92352.38
2023-05-13T06:24:00.909Z,92358.34
2023-05-13T06:29:03.031Z,92336.50
2023-05-13T06:34:08.798Z,92360.34
2023-05-13T06:39:12.288Z,92368.44
2023-05-13T06:44:14.885Z,92367.38
2023-05-13T06:49:21.240Z,92368.59
2023-05-13T06:54:23.281Z,92371.34
2023-05-13T06:59:25.398Z,92367.97
2023-05-13T07:04:29.356Z,92368.69
2023-05-13T07:09:31.271Z,92364.13
2023-05-13T07:14:33.111Z,92371.53
2023-05-13T07:19:34.913Z,92373.50
2023-05-13T07:24:36.835Z,92379.13
2023-05-13T07:29:38.666Z,92386.28
2023-05-13T07:34:40.482Z,92387.63
2023-05-13T07:39:42.451Z,92380.72
2023-05-13T07:44:44.217Z,92380.19
2023-05-13T07:49:46.072Z,92381.09
2023-05-13T07:54:48.221Z,92381.16
2023-05-13T07:59:50.080Z,92374.69
2023-05-13T08:04:51.909Z,92369.19
2023-05-13T08:09:53.801Z,92372.19
2023-05-13T08:14:55.624Z,92368.38
2023-05-13T08:19:57.519Z,92372.16
2023-05-13T08:25:00.977Z,92353.25
2023-05-13T08:30:03.302Z,92367.09
2023-05-13T08:35:05.686Z,92360.22
2023-05-13T08:40:08.265Z,92366.22
2023-05-13T08:45:11.697Z,92354.06
2023-05-13T08:50:14.391Z,92366.03
2023-05-13T08:55:17.454Z,92364.50
2023-05-13T09:00:21.382Z,92364.41
2023-05-13T09:05:25.144Z,92368.41
2023-05-13T09:10:28.082Z,92374.66
2023-05-13T09:15:30.549Z,92356.00
2023-05-13T09:20:33.236Z,92355.94
2023-05-13T09:25:36.510Z,92364.47
2023-05-13T09:30:40.651Z,92362.78
2023-05-13T09:35:44.625Z,92361.44
2023-05-13T09:41:05.135Z,92356.44
2023-05-13T09:46:09.285Z,92359.13
2023-05-13T09:51:12.065Z,92362.31
2023-05-13T09:56:13.891Z,92361.84
2023-05-13T10:01:16.110Z,92357.66
2023-05-13T10:06:18.695Z,92356.59
2023-05-13T10:11:21.523Z,92355.97
2023-05-13T10:16:25.204Z,92366.34
2023-05-13T10:21:27.809Z,92366.97
2023-05-13T10:26:29.999Z,92370.03
2023-05-13T10:31:32.174Z,92369.97
2023-05-13T10:36:48.870Z,92363.28
2023-05-13T10:41:53.403Z,92368.50
2023-05-13T10:46:58.542Z,92377.09
2023-05-13T10:52:14.335Z,92374.72
2023-05-13T10:57:17.722Z,92376.06
2023-05-13T11:02:22.101Z,92382.63
2023-05-13T11:07:24.031Z,92382.41
2023-05-13T11:12:26.011Z,92387.41
2023-05-13T11:17:31.177Z,92381.84
2023-05-13T11:22:34.027Z,92390.81
2023-05-13T11:27:41.553Z,92385.41
2023-05-13T11:32:56.491Z,92386.53
2023-05-13T11:38:03.310Z,92379.16
2023-05-13T11:43:06.258Z,92369.94
2023-05-13T11:48:22.310Z,92383.19
2023-05-13T11:53:24.135Z,92386.50
2023-05-13T11:58:26.167Z,92384.09
2023-05-13T12:03:28.218Z,92389.16
2023-05-13T12:08:30.258Z,92402.50
2023-05-13T12:13:32.145Z,92404.91
2023-05-13T12:18:34.427Z,92377.69
2023-05-13T12:23:40.822Z,92392.19
2023-05-13T12:28:42.858Z,92392.78
2023-05-13T12:33:46.875Z,92399.78
2023-05-13T12:39:00.043Z,92394.06
2023-05-13T12:44:14.896Z,92391.78
2023-05-13T12:49:16.835Z,92379.84
2023-05-13T12:54:18.971Z,92389.91
2023-05-13T12:59:20.839Z,92383.75
2023-05-13T13:04:23.405Z,92380.16
2023-05-13T13:09:25.434Z,92383.88
2023-05-13T13:14:27.364Z,92381.41
2023-05-13T13:19:29.216Z,92384.34
2023-05-13T13:24:31.545Z,92388.91
2023-05-13T13:29:33.359Z,92370.63
2023-05-13T13:34:35.342Z,92378.59
2023-05-13T13:39:37.167Z,92360.28
2023-05-13T13:44:39.517Z,92369.97
2023-05-13T13:49:41.375Z,92360.06
2023-05-13T13:54:43.113Z,92362.84
2023-05-13T13:59:44.973Z,92355.69
2023-05-13T14:04:46.716Z,92355.72
2023-05-13T14:09:49.743Z,92351.69
2023-05-13T14:14:51.583Z,92333.63
2023-05-13T14:19:55.463Z,92349.09
2023-05-13T14:24:58.863Z,92358.94
2023-05-13T14:30:00.608Z,92347.34
2023-05-13T14:35:02.411Z,92354.28
2023-05-13T14:40:04.721Z,92353.38
2023-05-13T14:45:07.160Z,92335.69
2023-05-13T14:50:09.107Z,92362.50
2023-05-13T14:55:11.078Z,92357.28
2023-05-13T15:00:13.488Z,92299.94
2023-05-13T15:05:15.286Z,92367.97
2023-05-13T15:10:17.055Z,92371.69
2023-05-13T15:15:19.041Z,92370.41
2023-05-13T15:20:21.056Z,92357.97
2023-05-13T15:25:22.996Z,92360.25
2023-05-13T15:30:24.920Z,92351.84
2023-05-13T15:35:26.723Z,92363.84
2023-05-13T15:40:28.499Z,92356.41
2023-05-13T15:45:30.622Z,92354.66
2023-05-13T15:50:33.731Z,92364.88
2023-05-13T15:55:37.415Z,92354.56
2023-05-13T16:00:39.224Z,92368.41
2023-05-13T16:05:41.134Z,92357.50
2023-05-13T16:10:43.084Z,92329.47
2023-05-13T16:15:45.049Z,92360.66
2023-05-13T16:20:47.085Z,92352.69
2023-05-13T16:25:48.979Z,92361.25
2023-05-13T16:30:51.314Z,92362.34
2023-05-13T16:35:55.823Z,92361.63
2023-05-13T16:40:57.691Z,92361.44
2023-05-13T16:45:59.511Z,92364.34
2023-05-13T16:51:01.339Z,92349.75
2023-05-13T16:56:03.149Z,92352.31
2023-05-13T17:01:04.976Z,92350.09
2023-05-13T17:06:07.568Z,92349.81
2023-05-13T17:11:16.069Z,92358.66
2023-05-13T17:16:18.061Z,92354.38
2023-05-13T17:21:19.866Z,92352.28
2023-05-13T17:26:22.019Z,92362.63
2023-05-13T17:31:24.987Z,92365.91
2023-05-13T17:36:26.979Z,92369.84
2023-05-13T17:41:28.738Z,92369.06
2023-05-13T17:46:30.643Z,92372.06
2023-05-13T17:51:32.503Z,92363.16
2023-05-13T17:56:34.336Z,92371.16
2023-05-13T18:01:36.204Z,92371.44
2023-05-13T18:06:38.022Z,92370.91
2023-05-13T18:11:39.872Z,92341.84
2023-05-13T18:16:41.897Z,92366.00
2023-05-13T18:21:45.520Z,92375.53
2023-05-13T18:26:47.370Z,92257.13
2023-05-13T18:31:49.229Z,92375.88
2023-05-13T18:36:52.211Z,92380.34
2023-05-13T18:41:54.013Z,92387.38
2023-05-13T18:46:55.933Z,92388.28
2023-05-13T18:51:57.842Z,92397.03
2023-05-13T18:56:59.743Z,92400.06
2023-05-13T19:02:01.802Z,92375.44
2023-05-13T19:07:03.808Z,92397.41
2023-05-13T19:12:05.941Z,92407.94
2023-05-13T19:17:08.014Z,92393.44
2023-05-13T19:22:09.899Z,92408.00
2023-05-13T19:27:11.872Z,92411.06
2023-05-13T19:32:13.693Z,92409.97
2023-05-13T19:37:15.524Z,92419.44
2023-05-13T19:42:17.332Z,92399.66
2023-05-13T19:47:19.170Z,92420.25
2023-05-13T19:52:20.980Z,92421.94
2023-05-13T19:57:22.742Z,92430.81
2023-05-13T20:02:24.483Z,92420.84
2023-05-13T20:07:26.210Z,92420.75
2023-05-13T20:12:28.048Z,92405.19
2023-05-13T20:17:32.990Z,92428.03
2023-05-13T20:22:35.135Z,92433.06
2023-05-13T20:27:36.935Z,92428.56
2023-05-13T20:32:38.781Z,92435.94
2023-05-13T20:37:40.975Z,92433.91
2023-05-13T20:42:42.928Z,92431.75
2023-05-13T20:47:44.658Z,92401.03
2023-05-13T20:52:46.432Z,92420.94
2023-05-13T20:57:50.068Z,92421.97
2023-05-13T21:02:53.194Z,92427.16
2023-05-13T21:07:55.006Z,92416.09
2023-05-13T21:12:56.712Z,92421.50
2023-05-13T21:17:58.830Z,92402.41
2023-05-13T21:23:01.326Z,92422.75
2023-05-13T21:28:03.711Z,92421.25
2023-05-13T21:33:05.688Z,92399.03
2023-05-13T21:38:11.846Z,92436.00
2023-05-13T21:43:14.434Z,92435.78
2023-05-13T21:48:16.606Z,92438.59
2023-05-13T21:53:18.444Z,92431.63
2023-05-13T21:58:21.895Z,92419.03
2023-05-13T22:03:25.119Z,92429.34
2023-05-13T22:08:26.834Z,92424.31
2023-05-13T22:13:28.641Z,92418.72
2023-05-13T22:18:30.903Z,92426.31
2023-05-13T22:23:33.333Z,92425.28
2023-05-13T22:28:35.072Z,92411.56
2023-05-13T22:33:36.821Z,92416.06
2023-05-13T22:38:39.019Z,92420.81
2023-05-13T22:43:40.783Z,92428.22
2023-05-13T22:48:42.533Z,92421.25
2023-05-13T22:53:44.332Z,92420.38
2023-05-13T22:58:46.126Z,92412.72
2023-05-13T23:03:47.917Z,92404.53
2023-05-13T23:08:49.670Z,92412.84
2023-05-13T23:13:51.533Z,92402.19
2023-05-13T23:18:55.132Z,92383.31
2023-05-13T23:23:57.918Z,92390.13
2023-05-13T23:28:59.671Z,92405.88
2023-05-13T23:34:01.492Z,92392.09
2023-05-13T23:39:03.385Z,92384.31
2023-05-13T23:44:05.160Z,92382.63
2023-05-13T23:49:06.986Z,92371.19
2023-05-13T23:54:08.774Z,92367.22
2023-05-13T23:59:10.615Z,92377.44
